Time;durP1;ratioP1;P1;durP2;ratioP2;P2;SDS_P1;SDS_P2;PMS_P1;PMS_P2;Temp;Humidity;BMP_temperature;BMP_pressure;BME280_temperature;BME280_humidity;BME280_pressure;Samples;Min_cycle;Max_cycle;Signal;HPM_P1;HPM_P2
2022/03/23 00:00:05;;;;;;;13.65;5.95;;;5.10;51.10;;;;;;5096228;28;20032;-77
2022/03/23 00:02:31;;;;;;;15.25;6.57;;;5.10;51.30;;;;;;5077668;28;20081;-77
2022/03/23 00:04:57;;;;;;;13.70;5.50;;;5.10;51.50;;;;;;5094298;28;20028;-78
2022/03/23 00:07:22;;;;;;;11.07;5.68;;;5.10;51.70;;;;;;5094282;28;20024;-77
2022/03/23 00:10:07;;;;;;;8.90;5.65;;;5.00;51.60;;;;;;5092967;28;20024;-77
2022/03/23 00:12:33;;;;;;;16.55;5.57;;;5.00;51.80;;;;;;5092875;28;20027;-76
2022/03/23 00:14:59;;;;;;;13.80;5.18;;;4.90;51.80;;;;;;5094058;28;20044;-76
2022/03/23 00:17:25;;;;;;;16.75;6.40;;;4.90;51.90;;;;;;5075738;28;20035;-76
2022/03/23 00:19:50;;;;;;;13.73;6.15;;;4.90;52.00;;;;;;5093373;28;20028;-76
2022/03/23 00:22:17;;;;;;;8.48;6.00;;;4.80;52.00;;;;;;5093988;28;20385;-78
2022/03/23 00:24:43;;;;;;;10.10;4.72;;;4.80;52.20;;;;;;5094201;28;20024;-78
2022/03/23 00:27:08;;;;;;;9.05;5.35;;;4.80;52.20;;;;;;5094086;28;20450;-76
2022/03/23 00:29:35;;;;;;;12.40;4.55;;;4.80;52.20;;;;;;5093718;28;20034;-76
2022/03/23 00:32:00;;;;;;;11.25;5.07;;;4.80;52.30;;;;;;5094318;28;20080;-76
2022/03/23 00:34:29;;;;;;;7.60;4.30;;;4.80;52.20;;;;;;5094123;28;20536;-78
2022/03/23 00:36:55;;;;;;;11.93;5.25;;;4.80;52.20;;;;;;5093795;28;20028;-77
2022/03/23 00:39:22;;;;;;;10.02;4.63;;;4.80;52.40;;;;;;5094035;28;20047;-77
2022/03/23 00:41:50;;;;;;;13.55;4.80;;;4.70;52.50;;;;;;5094118;28;20024;-78
2022/03/23 00:44:16;;;;;;;11.52;4.90;;;4.70;52.60;;;;;;5093429;28;20028;-76
2022/03/23 00:46:42;;;;;;;10.25;5.72;;;4.70;52.60;;;;;;5093571;28;20130;-76
2022/03/23 00:49:09;;;;;;;9.63;5.57;;;4.70;52.70;;;;;;5093656;28;20024;-75
2022/03/23 00:51:35;;;;;;;14.57;7.45;;;4.60;52.80;;;;;;5093625;28;20450;-76
2022/03/23 00:54:01;;;;;;;10.57;5.35;;;4.60;52.90;;;;;;5075078;28;20059;-75
2022/03/23 00:56:27;;;;;;;9.20;4.63;;;4.60;53.00;;;;;;5093339;28;20118;-76
2022/03/23 00:58:53;;;;;;;7.15;4.95;;;4.60;53.10;;;;;;5093055;28;20067;-76
2022/03/23 01:01:18;;;;;;;15.15;5.78;;;4.50;53.30;;;;;;5092359;28;20017;-76
2022/03/23 01:03:44;;;;;;;11.20;4.82;;;4.50;53.50;;;;;;5093697;28;20028;-76
2022/03/23 01:06:10;;;;;;;9.82;4.70;;;4.40;53.50;;;;;;5093155;28;20024;-76
2022/03/23 01:08:36;;;;;;;13.63;6.18;;;4.40;53.70;;;;;;5093016;28;20035;-76
2022/03/23 01:11:02;;;;;;;12.35;5.80;;;4.40;53.90;;;;;;5093031;28;20024;-76
2022/03/23 01:13:28;;;;;;;18.17;6.15;;;4.40;53.90;;;;;;5093078;28;20359;-77
2022/03/23 01:15:54;;;;;;;13.07;5.55;;;4.40;54.00;;;;;;5090737;28;20044;-75
2022/03/23 01:18:19;;;;;;;14.13;5.20;;;4.30;54.00;;;;;;5072599;28;20028;-76
2022/03/23 01:20:45;;;;;;;15.98;5.10;;;4.30;54.20;;;;;;5072631;28;20076;-77
2022/03/23 01:23:11;;;;;;;9.82;5.55;;;4.30;54.30;;;;;;5074130;28;20530;-76
2022/03/23 01:25:37;;;;;;;8.68;5.32;;;4.30;54.30;;;;;;5054813;28;20445;-76
2022/03/23 01:28:03;;;;;;;10.02;5.90;;;4.20;54.50;;;;;;5079586;28;20068;-76
2022/03/23 01:30:29;;;;;;;7.65;4.60;;;4.20;54.60;;;;;;5091949;28;20832;-76
2022/03/23 01:32:55;;;;;;;8.90;4.72;;;4.20;54.80;;;;;;5093312;28;20139;-76
2022/03/23 01:35:20;;;;;;;14.43;5.90;;;4.10;54.80;;;;;;5070927;28;20039;-76
2022/03/23 01:37:46;;;;;;;10.45;5.80;;;4.10;55.00;;;;;;5072452;28;20120;-76
2022/03/23 01:40:12;;;;;;;11.45;5.78;;;4.00;55.10;;;;;;5073303;28;20111;-75
2022/03/23 01:42:40;;;;;;;8.80;4.85;;;4.00;55.10;;;;;;5073350;28;20098;-76
2022/03/23 01:45:08;;;;;;;9.02;5.00;;;4.00;55.20;;;;;;5072571;28;20024;-75
2022/03/23 01:47:35;;;;;;;11.07;5.95;;;4.00;55.30;;;;;;5072486;28;20029;-77
2022/03/23 01:50:03;;;;;;;10.25;5.45;;;4.00;55.50;;;;;;5071805;28;20020;-78
2022/03/23 01:52:32;;;;;;;13.48;4.95;;;4.00;55.50;;;;;;5072415;28;20397;-76
2022/03/23 01:54:59;;;;;;;12.82;5.85;;;4.00;55.60;;;;;;5073385;28;20036;-76
2022/03/23 01:57:25;;;;;;;;;;;3.90;55.60;;;;;;5073533;28;20385;-75
2022/03/23 01:59:51;;;;;;;11.50;6.07;;;3.90;55.30;;;;;;5074198;28;19919;-75
2022/03/23 02:02:17;;;;;;;7.55;4.68;;;3.90;55.60;;;;;;5092034;28;20108;-75
2022/03/23 02:04:43;;;;;;;13.38;5.57;;;3.80;55.80;;;;;;5092347;28;20020;-76
2022/03/23 02:07:10;;;;;;;8.95;4.95;;;3.80;55.90;;;;;;5096812;28;20488;-76
2022/03/23 02:09:36;;;;;;;9.00;5.40;;;3.70;56.00;;;;;;5086730;28;20048;-75
2022/03/23 02:12:05;;;;;;;13.18;6.65;;;3.80;56.10;;;;;;5072373;28;20382;-76
2022/03/23 02:14:30;;;;;;;9.38;5.13;;;3.70;56.20;;;;;;5081873;28;20028;-75
2022/03/23 02:16:56;;;;;;;14.88;5.93;;;3.70;56.30;;;;;;5092310;28;20035;-77
2022/03/23 02:19:22;;;;;;;11.80;6.40;;;3.70;56.50;;;;;;5091785;28;20024;-75
2022/03/23 02:21:49;;;;;;;9.93;6.05;;;3.60;56.50;;;;;;5091459;28;20073;-77
2022/03/23 02:24:16;;;;;;;8.10;5.05;;;3.70;56.60;;;;;;5092095;28;20489;-75
2022/03/23 02:26:42;;;;;;;10.95;5.93;;;3.60;56.60;;;;;;5080101;28;20385;-75
2022/03/23 02:29:09;;;;;;;7.18;5.03;;;3.60;56.70;;;;;;5092033;28;20056;-75
2022/03/23 02:31:35;;;;;;;8.87;6.13;;;3.60;56.80;;;;;;5091690;28;20031;-76
2022/03/23 02:34:02;;;;;;;10.20;6.07;;;3.60;57.40;;;;;;5091737;28;20426;-75
2022/03/23 02:36:29;;;;;;;12.48;5.63;;;3.60;56.90;;;;;;5091993;28;20068;-76
2022/03/23 02:38:54;;;;;;;7.18;5.07;;;3.60;56.90;;;;;;5091741;28;20048;-75
2022/03/23 02:41:20;;;;;;;10.43;5.30;;;3.60;56.90;;;;;;5092087;28;20093;-77
2022/03/23 02:43:46;;;;;;;11.98;5.55;;;3.60;56.90;;;;;;5090900;28;20027;-76
2022/03/23 02:46:13;;;;;;;10.80;7.03;;;3.60;57.00;;;;;;5091735;28;20032;-76
2022/03/23 02:48:39;;;;;;;14.88;7.88;;;3.60;57.10;;;;;;5091863;28;20026;-78
2022/03/23 02:51:05;;;;;;;16.52;6.07;;;3.60;57.10;;;;;;5091681;28;20028;-76
2022/03/23 03:02:36;;;;;;;15.32;5.90;;;3.60;57.30;;;;;;5071293;28;20090;-76
2022/03/23 03:05:06;;;;;;;15.02;6.35;;;3.60;57.30;;;;;;5067491;28;20041;-76
2022/03/23 03:08:44;;;;;;;13.13;6.13;;;3.60;57.40;;;;;;5071206;28;20028;-77
2022/03/23 03:10:23;;;;;;;15.07;6.18;;;3.50;57.70;;;;;;5071051;28;20056;-77
2022/03/23 03:12:51;;;;;;;18.02;6.47;;;3.50;57.80;;;;;;5053729;28;20359;-76
2022/03/23 03:15:18;;;;;;;;;;;3.40;57.90;;;;;;5080919;28;20036;-77
2022/03/23 03:17:44;;;;;;;;;;;3.40;57.50;;;;;;5091817;28;19907;-75
2022/03/23 03:20:10;;;;;;;11.40;5.70;;;3.30;57.50;;;;;;5073265;28;20437;-77
2022/03/23 03:22:40;;;;;;;15.35;5.75;;;3.30;58.00;;;;;;5089474;28;20024;-76
2022/03/23 03:25:07;;;;;;;9.75;5.72;;;3.30;58.40;;;;;;5070771;28;20021;-75
2022/03/23 03:27:36;;;;;;;14.00;6.70;;;3.30;58.50;;;;;;5071286;28;20447;-77
2022/03/23 03:30:04;;;;;;;8.25;5.40;;;3.20;58.60;;;;;;5071161;28;20056;-75
2022/03/23 03:32:30;;;;;;;12.75;5.45;;;3.20;58.90;;;;;;5083214;28;20052;-75
2022/03/23 03:34:57;;;;;;;11.05;6.15;;;3.20;58.90;;;;;;5095158;28;20024;-75
2022/03/23 03:37:23;;;;;;;10.80;6.43;;;3.20;59.00;;;;;;5087960;28;20081;-76
2022/03/23 03:39:49;;;;;;;13.40;7.20;;;3.20;58.90;;;;;;5075379;28;20033;-76
2022/03/23 03:42:15;;;;;;;10.23;6.10;;;3.20;59.20;;;;;;5075531;28;20024;-76
2022/03/23 03:44:41;;;;;;;18.42;6.90;;;3.20;59.20;;;;;;5074609;28;20504;-77
2022/03/23 03:47:10;;;;;;;16.98;6.30;;;3.20;59.20;;;;;;5074987;28;20052;-77
2022/03/23 03:49:35;;;;;;;13.20;6.35;;;3.20;59.20;;;;;;5074543;28;20021;-75
2022/03/23 03:52:01;;;;;;;10.95;5.53;;;3.20;59.10;;;;;;5073834;28;20020;-76
2022/03/23 03:54:27;;;;;;;9.45;5.30;;;3.30;59.20;;;;;;5074261;28;20047;-74
2022/03/23 03:56:53;;;;;;;8.43;6.30;;;3.30;59.10;;;;;;5074229;28;20028;-77
2022/03/23 03:59:18;;;;;;;12.02;7.25;;;3.40;59.00;;;;;;5092590;28;20396;-77
2022/03/23 04:01:44;;;;;;;14.57;7.07;;;3.40;58.90;;;;;;5094703;28;20032;-78
2022/03/23 04:04:10;;;;;;;9.48;6.88;;;3.40;58.90;;;;;;5076371;28;20032;-75
2022/03/23 04:06:37;;;;;;;10.73;5.57;;;3.50;59.00;;;;;;5094216;28;20077;-76
2022/03/23 04:09:03;;;;;;;12.90;7.10;;;3.50;59.00;;;;;;5089744;28;20030;-77
2022/03/23 04:11:30;;;;;;;17.63;5.68;;;3.50;59.30;;;;;;5074102;28;20107;-76
2022/03/23 04:13:55;;;;;;;11.75;6.20;;;3.60;59.10;;;;;;5074142;28;20027;-75
2022/03/23 04:16:21;;;;;;;12.90;6.68;;;3.60;59.00;;;;;;5073765;28;20041;-75
2022/03/23 04:18:47;;;;;;;13.45;6.60;;;3.80;58.80;;;;;;5074424;28;20363;-78
2022/03/23 04:21:15;;;;;;;13.30;8.10;;;4.00;58.40;;;;;;5075002;28;20029;-76
2022/03/23 04:23:40;;;;;;;12.63;6.70;;;4.20;57.80;;;;;;5079226;28;20020;-76
2022/03/23 04:26:06;;;;;;;12.05;6.20;;;4.50;57.40;;;;;;5075243;28;20033;-76
2022/03/23 04:28:32;;;;;;;9.57;6.10;;;4.60;56.80;;;;;;5073991;28;20027;-77
2022/03/23 04:31:01;;;;;;;16.48;8.18;;;4.90;56.70;;;;;;5074347;28;20423;-78
2022/03/23 04:33:26;;;;;;;13.88;6.07;;;5.10;55.90;;;;;;5073905;28;20028;-76
2022/03/23 04:35:53;;;;;;;15.27;7.38;;;5.00;55.30;;;;;;5073647;28;20035;-76
2022/03/23 04:38:20;;;;;;;13.30;7.25;;;4.80;55.60;;;;;;5073929;28;20162;-76
2022/03/23 04:40:45;;;;;;;13.02;7.05;;;4.50;55.90;;;;;;5088579;28;20039;-76
2022/03/23 04:43:12;;;;;;;13.02;6.85;;;4.30;56.50;;;;;;5094333;28;20024;-76
2022/03/23 04:45:38;;;;;;;21.50;7.43;;;4.20;56.80;;;;;;5092149;28;20063;-78
2022/03/23 04:48:04;;;;;;;10.88;6.70;;;4.10;57.00;;;;;;5093967;28;20051;-77
2022/03/23 04:50:30;;;;;;;13.97;7.30;;;4.00;57.30;;;;;;5093728;28;20056;-76
2022/03/23 04:52:56;;;;;;;22.63;7.75;;;3.90;57.50;;;;;;5093266;28;20267;-77
2022/03/23 04:55:22;;;;;;;15.13;8.60;;;3.80;57.80;;;;;;5093443;28;20016;-78
2022/03/23 04:57:48;;;;;;;21.83;8.20;;;3.80;58.00;;;;;;5093359;28;20024;-77
2022/03/23 05:00:17;;;;;;;19.25;8.10;;;3.80;58.20;;;;;;5093399;28;20477;-78
2022/03/23 05:02:44;;;;;;;16.98;7.60;;;3.90;58.40;;;;;;5074310;28;20031;-78
2022/03/23 05:05:11;;;;;;;10.07;7.32;;;3.90;58.50;;;;;;5093137;28;20032;-78
2022/03/23 05:07:38;;;;;;;20.88;8.18;;;3.90;58.40;;;;;;5093217;28;20028;-77
2022/03/23 05:10:05;;;;;;;12.83;7.97;;;4.00;58.40;;;;;;5074930;28;20521;-80
2022/03/23 05:12:30;;;;;;;14.30;7.85;;;4.00;58.30;;;;;;5093188;28;20032;-77
2022/03/23 05:14:57;;;;;;;16.17;8.02;;;4.00;58.30;;;;;;5092756;28;20127;-78
2022/03/23 05:17:22;;;;;;;31.30;8.80;;;4.00;58.20;;;;;;5085428;28;20021;-76
2022/03/23 05:19:48;;;;;;;20.90;8.63;;;4.10;58.30;;;;;;5073209;28;20033;-79
2022/03/23 05:22:15;;;;;;;19.13;9.10;;;4.10;58.30;;;;;;5094814;28;20020;-78
2022/03/23 05:24:41;;;;;;;14.00;7.90;;;4.10;58.20;;;;;;5090296;28;20115;-76
2022/03/23 05:27:08;;;;;;;14.98;7.75;;;4.20;58.20;;;;;;5072581;28;20033;-77
2022/03/23 05:29:35;;;;;;;12.13;7.95;;;4.20;58.40;;;;;;5074152;28;20455;-78
2022/03/23 05:32:01;;;;;;;15.15;8.18;;;4.20;58.30;;;;;;5093237;28;20068;-77
2022/03/23 05:34:27;;;;;;;15.45;8.55;;;4.20;58.30;;;;;;5092410;28;20024;-77
2022/03/23 05:36:52;;;;;;;17.92;8.98;;;4.30;58.40;;;;;;5072260;28;20246;-78
2022/03/23 05:39:18;;;;;;;15.45;9.20;;;4.30;58.40;;;;;;5072178;28;20044;-78
2022/03/23 05:41:44;;;;;;;17.77;7.75;;;4.30;58.20;;;;;;5072118;28;20016;-77
2022/03/23 05:44:10;;;;;;;23.77;10.77;;;4.30;58.20;;;;;;5072190;28;20100;-78
2022/03/23 05:46:36;;;;;;;21.45;8.88;;;4.40;58.20;;;;;;5071864;28;20389;-78
2022/03/23 05:49:03;;;;;;;16.33;7.38;;;4.40;58.20;;;;;;5071805;28;20020;-78
2022/03/23 05:51:29;;;;;;;14.25;8.38;;;4.50;58.00;;;;;;5071474;28;20032;-78
2022/03/23 05:53:55;;;;;;;19.00;9.52;;;4.60;58.20;;;;;;5072178;28;20020;-79
2022/03/23 05:56:20;;;;;;;18.55;9.52;;;4.60;58.00;;;;;;5053265;28;20473;-77
2022/03/23 05:58:48;;;;;;;17.25;9.30;;;4.70;58.00;;;;;;5085832;28;20485;-79
2022/03/23 06:01:16;;;;;;;;;;;4.80;57.80;;;;;;5074455;28;20028;-78
2022/03/23 06:03:42;;;;;;;17.13;8.25;;;4.80;57.40;;;;;;5073692;28;19967;-76
2022/03/23 06:06:09;;;;;;;18.95;9.27;;;4.90;57.30;;;;;;5091915;28;20485;-78
2022/03/23 06:08:35;;;;;;;18.50;9.07;;;4.90;57.30;;;;;;5090816;28;20400;-79
2022/03/23 06:11:01;;;;;;;17.60;9.52;;;5.00;57.10;;;;;;5092621;28;20023;-77
2022/03/23 06:13:27;;;;;;;21.25;8.88;;;5.00;56.90;;;;;;5091878;28;20051;-78
2022/03/23 06:15:54;;;;;;;20.08;9.18;;;5.10;56.90;;;;;;5086279;28;20068;-79
2022/03/23 06:18:20;;;;;;;15.38;8.43;;;5.10;56.90;;;;;;5071820;28;20027;-78
2022/03/23 06:20:47;;;;;;;21.98;10.63;;;5.20;56.70;;;;;;5074659;28;20309;-78
2022/03/23 06:23:13;;;;;;;15.50;8.80;;;5.30;56.70;;;;;;5092318;28;20016;-80
2022/03/23 06:25:39;;;;;;;20.17;9.80;;;5.30;56.50;;;;;;5091814;28;20128;-80
2022/03/23 06:28:05;;;;;;;18.65;10.45;;;5.40;56.40;;;;;;5091821;28;20107;-77
2022/03/23 06:30:30;;;;;;;19.52;10.98;;;5.40;56.30;;;;;;5091629;28;20497;-77
2022/03/23 06:32:56;;;;;;;22.63;10.82;;;5.50;56.20;;;;;;5088978;28;20526;-77
2022/03/23 06:35:23;;;;;;;20.75;10.25;;;5.60;56.10;;;;;;5090928;28;20031;-78
2022/03/23 06:37:49;;;;;;;23.05;10.80;;;5.70;55.90;;;;;;5074202;28;20070;-82
2022/03/23 06:40:15;;;;;;;23.52;11.77;;;5.80;55.70;;;;;;5071463;28;20493;-80
2022/03/23 06:42:41;;;;;;;24.38;10.73;;;5.80;55.50;;;;;;5079588;28;20082;-79
2022/03/23 06:45:07;;;;;;;17.55;10.80;;;5.90;55.20;;;;;;5092267;28;20024;-80
2022/03/23 06:47:32;;;;;;;23.50;11.40;;;6.00;55.00;;;;;;5088949;28;20068;-77
2022/03/23 06:49:58;;;;;;;20.00;10.88;;;6.10;54.80;;;;;;5089080;28;20560;-77
2022/03/23 06:52:24;;;;;;;21.17;10.90;;;6.20;54.60;;;;;;5091407;28;20035;-78
2022/03/23 06:54:50;;;;;;;22.33;10.23;;;6.20;54.30;;;;;;5091189;28;20222;-76
2022/03/23 06:57:16;;;;;;;25.05;11.32;;;6.30;54.20;;;;;;5090962;28;20025;-80
2022/03/23 06:59:42;;;;;;;26.02;10.18;;;6.40;54.00;;;;;;5073183;28;20131;-77
2022/03/23 07:02:08;;;;;;;18.23;10.15;;;6.50;53.80;;;;;;5091362;28;20100;-77
2022/03/23 07:04:34;;;;;;;19.58;9.52;;;6.60;53.80;;;;;;5090614;28;20031;-78
2022/03/23 07:07:00;;;;;;;18.52;8.77;;;6.70;53.40;;;;;;5091420;28;20028;-78
2022/03/23 07:09:31;;;;;;;14.40;7.55;;;6.80;53.40;;;;;;5095236;28;20500;-77
2022/03/23 07:11:59;;;;;;;15.57;6.80;;;7.00;53.20;;;;;;5095621;28;20020;-78
2022/03/23 07:14:29;;;;;;;18.02;7.40;;;7.00;52.60;;;;;;5076828;28;20024;-77
2022/03/23 07:16:55;;;;;;;17.40;7.38;;;7.20;52.50;;;;;;5077129;28;20453;-79
2022/03/23 07:19:22;;;;;;;14.27;7.35;;;7.40;52.20;;;;;;5094131;28;20055;-78
2022/03/23 07:21:48;;;;;;;18.95;6.97;;;7.50;51.70;;;;;;5074765;28;20098;-78
2022/03/23 07:24:14;;;;;;;14.30;7.05;;;8.10;51.30;;;;;;5075481;28;20111;-77
2022/03/23 07:26:40;;;;;;;13.13;6.82;;;9.70;49.20;;;;;;5075854;28;20401;-78
2022/03/23 07:29:06;;;;;;;15.45;7.07;;;11.70;45.30;;;;;;5074729;28;20031;-79
2022/03/23 07:31:33;;;;;;;12.75;7.15;;;13.40;42.30;;;;;;5074678;28;20101;-79
2022/03/23 07:33:59;;;;;;;11.05;6.35;;;14.90;39.80;;;;;;5074818;28;20020;-76
2022/03/23 07:36:25;;;;;;;18.05;6.72;;;16.40;37.80;;;;;;5075323;28;20082;-76
2022/03/23 07:38:52;;;;;;;11.90;6.13;;;18.00;35.60;;;;;;5095065;28;20492;-78
2022/03/23 07:41:18;;;;;;;12.93;6.13;;;19.40;32.90;;;;;;5095079;28;20016;-79
2022/03/23 07:43:44;;;;;;;11.30;4.97;;;19.90;30.90;;;;;;5094476;28;20088;-77
2022/03/23 07:46:10;;;;;;;12.10;4.90;;;20.10;30.60;;;;;;5076583;28;20039;-77
2022/03/23 07:48:36;;;;;;;12.95;5.45;;;20.40;29.80;;;;;;5076330;28;20031;-77
2022/03/23 07:51:02;;;;;;;17.70;5.05;;;21.20;29.40;;;;;;5094403;28;20021;-78
2022/03/23 07:53:27;;;;;;;10.45;5.10;;;22.10;28.50;;;;;;5083124;28;20338;-78
2022/03/23 07:55:54;;;;;;;11.90;4.90;;;21.90;27.70;;;;;;5072886;28;20544;-77
2022/03/23 07:58:20;;;;;;;9.93;5.05;;;21.50;27.90;;;;;;5094235;28;20477;-78
2022/03/23 08:00:47;;;;;;;12.90;5.70;;;21.40;28.20;;;;;;5094409;28;20036;-77
2022/03/23 08:03:13;;;;;;;12.40;5.95;;;21.30;28.20;;;;;;5094284;28;20381;-80
2022/03/23 08:05:42;;;;;;;15.63;6.18;;;21.50;28.20;;;;;;5094434;28;20434;-78
2022/03/23 08:08:09;;;;;;;6.93;5.18;;;21.80;28.60;;;;;;5070384;28;20028;-77
2022/03/23 08:10:36;;;;;;;7.97;4.03;;;22.30;27.70;;;;;;5074096;28;20132;-78
2022/03/23 08:13:04;;;;;;;4.82;3.20;;;22.50;27.40;;;;;;5073975;28;20409;-78
2022/03/23 08:15:30;;;;;;;6.35;4.18;;;22.30;27.30;;;;;;5074101;28;20126;-78
2022/03/23 08:17:56;;;;;;;9.98;4.15;;;22.40;27.40;;;;;;5073930;28;20100;-78
2022/03/23 08:20:37;;;;;;;5.70;3.50;;;22.50;27.20;;;;;;5092985;28;20402;-79
2022/03/23 08:23:09;;;;;;;5.90;3.75;;;23.30;26.60;;;;;;5093946;28;20024;-77
2022/03/23 08:25:41;;;;;;;11.95;4.72;;;23.30;26.30;;;;;;5093894;28;20077;-77
2022/03/23 08:28:08;;;;;;;9.70;4.70;;;23.50;26.20;;;;;;5093947;28;20052;-80
2022/03/23 08:30:34;;;;;;;9.45;4.25;;;24.00;26.20;;;;;;5093710;28;20115;-79
2022/03/23 08:33:01;;;;;;;10.70;4.03;;;24.40;25.40;;;;;;5093868;28;20097;-77
2022/03/23 08:35:29;;;;;;;6.50;4.28;;;24.60;25.00;;;;;;5093472;28;20028;-77
2022/03/23 08:37:55;;;;;;;11.27;4.85;;;24.40;24.80;;;;;;5093619;28;20107;-77
2022/03/23 08:40:21;;;;;;;8.80;4.80;;;24.50;24.80;;;;;;5094015;28;20116;-78
2022/03/23 08:42:48;;;;;;;8.10;3.93;;;24.50;24.70;;;;;;5075671;28;20028;-78
2022/03/23 08:45:15;;;;;;;5.90;4.83;;;24.30;24.70;;;;;;5094240;28;20268;-78
2022/03/23 08:47:41;;;;;;;10.93;5.07;;;24.10;24.80;;;;;;5093883;28;20024;-80
2022/03/23 08:50:09;;;;;;;7.72;4.53;;;24.10;24.50;;;;;;5085579;28;20016;-77
2022/03/23 08:52:37;;;;;;;27.23;7.10;;;24.40;24.70;;;;;;5073840;28;20033;-79
2022/03/23 08:55:05;;;;;;;10.45;5.35;;;24.60;24.70;;;;;;5084003;28;20023;-80
2022/03/23 08:57:31;;;;;;;10.27;5.10;;;25.30;24.30;;;;;;5094069;28;20531;-79
2022/03/23 08:59:57;;;;;;;13.45;5.68;;;25.10;23.90;;;;;;5093162;28;20044;-80
2022/03/23 09:02:22;;;;;;;12.88;6.00;;;24.70;24.40;;;;;;5093155;28;20024;-78
2022/03/23 09:04:48;;;;;;;9.13;5.90;;;24.80;24.20;;;;;;5093224;28;20480;-79
2022/03/23 09:07:14;;;;;;;6.95;5.95;;;24.60;24.40;;;;;;5091757;28;20039;-79
2022/03/23 09:09:40;;;;;;;9.75;5.38;;;24.30;24.70;;;;;;5093116;28;20158;-79
2022/03/23 09:12:06;;;;;;;8.93;6.45;;;24.60;24.70;;;;;;5092875;28;20338;-79
2022/03/23 09:14:32;;;;;;;12.40;6.57;;;25.00;24.50;;;;;;5092960;28;20518;-78
2022/03/23 09:16:57;;;;;;;10.70;6.20;;;25.40;24.20;;;;;;5092832;28;20036;-81
2022/03/23 09:19:23;;;;;;;10.85;6.35;;;25.80;24.20;;;;;;5074339;28;20165;-79
2022/03/23 09:21:50;;;;;;;9.45;5.70;;;26.50;24.10;;;;;;5092678;28;20429;-79
2022/03/23 09:24:19;;;;;;;11.77;6.65;;;27.00;23.80;;;;;;5073778;28;20143;-80
2022/03/23 09:26:45;;;;;;;14.10;6.25;;;26.70;23.70;;;;;;5072609;28;20054;-79
2022/03/23 09:29:11;;;;;;;9.13;6.77;;;26.40;23.70;;;;;;5072457;28;20028;-77
2022/03/23 09:31:37;;;;;;;7.75;5.10;;;26.20;23.50;;;;;;5053881;28;20576;-78
2022/03/23 09:34:03;;;;;;;9.93;5.38;;;26.00;23.70;;;;;;5072353;28;20027;-80
2022/03/23 09:39:14;;;;;;;12.13;6.75;;;25.40;23.70;;;;;;5076876;28;20035;-81
2022/03/23 09:41:43;;;;;;;10.57;5.90;;;25.70;24.00;;;;;;5092238;28;20397;-78
2022/03/23 09:44:10;;;;;;;15.55;6.47;;;26.30;23.80;;;;;;5092531;28;20055;-78
2022/03/23 09:46:36;;;;;;;10.63;6.07;;;26.00;23.60;;;;;;5090485;28;20028;-78
2022/03/23 09:49:03;;;;;;;9.77;6.23;;;25.70;23.90;;;;;;5073931;28;20036;-77
2022/03/23 09:51:33;;;;;;;12.23;5.88;;;26.00;23.90;;;;;;5073917;28;20020;-79
2022/03/23 09:54:00;;;;;;;7.07;5.38;;;26.40;23.70;;;;;;5091874;28;20492;-78
2022/03/23 09:56:25;;;;;;;10.15;6.55;;;26.90;23.50;;;;;;5091918;28;20035;-80
2022/03/23 09:58:51;;;;;;;11.95;6.30;;;27.70;24.00;;;;;;5091975;28;20032;-79
2022/03/23 10:01:29;;;;;;;12.93;6.10;;;27.70;22.90;;;;;;5091373;28;20071;-80
2022/03/23 10:04:06;;;;;;;8.93;5.88;;;27.20;23.10;;;;;;5088161;28;20061;-78
2022/03/23 10:07:09;;;;;;;8.45;6.63;;;27.10;23.20;;;;;;5053675;28;20032;-79
2022/03/23 10:09:46;;;;;;;10.45;5.75;;;27.00;23.60;;;;;;5072092;28;20872;-79
2022/03/23 10:12:49;;;;;;;8.82;6.57;;;26.70;23.20;;;;;;5072240;28;20028;-81
2022/03/23 10:15:52;;;;;;;8.20;5.03;;;26.30;23.40;;;;;;5071722;28;20052;-80
2022/03/23 10:18:37;;;;;;;7.00;5.13;;;26.10;23.60;;;;;;5071669;28;20032;-79
2022/03/23 10:21:05;;;;;;;14.10;5.40;;;26.10;23.50;;;;;;5053823;28;20056;-80
2022/03/23 10:23:31;;;;;;;7.85;5.50;;;26.40;23.60;;;;;;5091765;28;20269;-81
2022/03/23 10:26:09;;;;;;;11.18;5.25;;;25.70;22.90;;;;;;5091807;28;20050;-79
2022/03/23 10:28:35;;;;;;;7.95;5.70;;;23.80;23.50;;;;;;5091527;28;20036;-78
2022/03/23 10:31:15;;;;;;;10.32;6.75;;;21.90;24.80;;;;;;5091544;28;20020;-79
2022/03/23 10:33:41;;;;;;;9.55;5.50;;;20.40;26.00;;;;;;5073075;28;20028;-77
2022/03/23 10:36:06;;;;;;;12.10;5.75;;;19.40;27.10;;;;;;5091922;28;20020;-78
2022/03/23 10:38:40;;;;;;;10.65;5.95;;;18.40;27.20;;;;;;5083492;28;20025;-79
2022/03/23 10:41:11;;;;;;;13.63;6.20;;;17.30;28.10;;;;;;5071390;28;20029;-79
2022/03/23 10:43:39;;;;;;;13.73;6.70;;;16.40;28.80;;;;;;5074135;28;20025;-79
2022/03/23 10:46:11;;;;;;;10.38;6.13;;;15.80;29.40;;;;;;5058101;28;20382;-79
2022/03/23 10:48:58;;;;;;;12.75;6.53;;;15.20;30.00;;;;;;5057908;28;20179;-78
2022/03/23 10:51:35;;;;;;;14.55;7.13;;;14.70;30.60;;;;;;5076348;28;20028;-78
2022/03/23 10:54:23;;;;;;;9.30;6.05;;;14.40;31.40;;;;;;5077408;28;20370;-79
2022/03/23 10:56:49;;;;;;;7.55;4.97;;;14.20;31.30;;;;;;5075571;28;20111;-77
2022/03/23 10:59:26;;;;;;;6.88;5.35;;;14.10;31.30;;;;;;5075497;28;20422;-78
2022/03/23 11:01:58;;;;;;;8.50;5.03;;;14.00;31.20;;;;;;5057549;28;20016;-79
2022/03/23 11:04:31;;;;;;;8.90;4.68;;;13.70;31.50;;;;;;5075317;28;20029;-79
2022/03/23 11:06:58;;;;;;;9.15;5.25;;;13.40;31.50;;;;;;5075177;28;20016;-79
2022/03/23 11:18:11;;;;;;;13.70;8.63;;;12.60;32.20;;;;;;5076152;28;20036;-78
2022/03/23 11:20:39;;;;;;;9.68;5.88;;;12.50;32.80;;;;;;5075348;28;20420;-78
2022/03/23 11:23:24;;;;;;;21.48;6.25;;;12.40;33.00;;;;;;5057289;28;20025;-79
2022/03/23 11:25:59;;;;;;;8.55;4.63;;;12.40;34.00;;;;;;5075889;28;20082;-78
2022/03/23 11:28:28;;;;;;;8.18;4.80;;;12.50;33.40;;;;;;5056897;28;20089;-79
2022/03/23 11:30:55;;;;;;;10.73;5.80;;;12.40;33.40;;;;;;5074617;28;20043;-76
2022/03/23 11:33:25;;;;;;;14.23;4.63;;;12.50;33.60;;;;;;5074488;28;20101;-78
2022/03/23 11:35:52;;;;;;;10.13;5.90;;;12.50;33.40;;;;;;5074767;28;20028;-77
2022/03/23 11:38:29;;;;;;;8.38;4.93;;;12.50;33.40;;;;;;5075464;28;20031;-76
2022/03/23 11:40:56;;;;;;;12.82;4.43;;;12.50;33.30;;;;;;5074903;28;20413;-77
2022/03/23 11:43:24;;;;;;;8.40;4.53;;;12.40;33.20;;;;;;5074739;28;20106;-78
2022/03/23 11:45:51;;;;;;;7.97;3.78;;;12.40;33.50;;;;;;5074662;28;20103;-77
2022/03/23 11:48:20;;;;;;;;;;;12.40;32.80;;;;;;5074909;28;20036;-77
2022/03/23 11:50:56;;;;;;;7.30;4.20;;;12.40;32.60;;;;;;5073785;28;20473;-77
2022/03/23 11:53:37;;;;;;;9.77;4.75;;;12.50;32.90;;;;;;5073977;28;20028;-78
2022/03/23 11:56:04;;;;;;;9.63;4.82;;;12.50;32.60;;;;;;5073746;28;20480;-77
2022/03/23 11:58:37;;;;;;;11.00;4.72;;;12.50;32.50;;;;;;5094346;28;20055;-78
2022/03/23 12:01:11;;;;;;;11.75;4.57;;;12.50;32.40;;;;;;5094505;28;20042;-77
2022/03/23 12:04:19;;;;;;;9.35;4.72;;;12.50;32.60;;;;;;5094363;28;20024;-79
2022/03/23 12:06:45;;;;;;;8.80;5.07;;;12.40;32.20;;;;;;4991781;28;20034;-80
2022/03/23 12:09:29;;;;;;;13.57;6.97;;;12.30;33.20;;;;;;4992747;28;20399;-79
2022/03/23 12:11:56;;;;;;;14.50;4.47;;;12.30;32.90;;;;;;4993242;28;20034;-77
2022/03/23 12:14:30;;;;;;;14.57;7.07;;;12.30;32.90;;;;;;4976715;28;20033;-78
2022/03/23 12:16:56;;;;;;;7.30;5.75;;;12.30;33.10;;;;;;4992288;28;20035;-79
2022/03/23 12:19:26;;;;;;;16.77;9.70;;;12.30;33.20;;;;;;4992514;28;20120;-78
2022/03/23 12:21:58;;;;;;;12.48;5.25;;;12.30;33.70;;;;;;4992707;28;20250;-79
2022/03/23 12:24:39;;;;;;;18.15;7.18;;;12.40;33.70;;;;;;4978801;28;20057;-80
2022/03/23 12:27:24;;;;;;;6.40;5.10;;;12.40;33.80;;;;;;4972916;28;20492;-78
2022/03/23 12:29:52;;;;;;;7.57;4.90;;;12.60;33.70;;;;;;4956626;28;20026;-78
2022/03/23 12:32:18;;;;;;;9.18;4.78;;;13.00;34.00;;;;;;4972958;28;20034;-79
2022/03/23 12:34:45;;;;;;;8.52;4.72;;;13.20;32.70;;;;;;4972977;28;20039;-78
2022/03/23 12:37:16;;;;;;;9.88;4.65;;;13.30;32.30;;;;;;5007790;28;20047;-78
2022/03/23 12:39:53;;;;;;;8.00;5.20;;;13.40;32.30;;;;;;5083312;28;20032;-78
2022/03/23 12:42:30;;;;;;;16.20;5.53;;;13.40;32.40;;;;;;5094178;28;20027;-79
2022/03/23 12:44:56;;;;;;;8.15;4.68;;;13.30;32.40;;;;;;5094351;28;20020;-78
2022/03/23 12:47:27;;;;;;;8.52;5.15;;;13.10;32.80;;;;;;5093545;28;20031;-77
2022/03/23 12:58:24;;;;;;;9.60;4.70;;;12.50;33.60;;;;;;5073174;28;20052;-79
2022/03/23 13:00:52;;;;;;;15.55;8.52;;;12.40;33.70;;;;;;5072753;28;20068;-78
2022/03/23 13:03:22;;;;;;;13.63;7.55;;;12.40;33.90;;;;;;5072771;28;20039;-78
2022/03/23 13:06:00;;;;;;;9.30;5.22;;;12.40;33.70;;;;;;5073031;28;20035;-76
2022/03/23 13:08:38;;;;;;;7.35;4.43;;;12.40;33.40;;;;;;5055084;28;20024;-78
2022/03/23 13:11:08;;;;;;;13.60;6.30;;;12.40;33.30;;;;;;5072978;28;20096;-77
2022/03/23 13:13:38;;;;;;;14.73;4.93;;;12.30;33.60;;;;;;5053223;28;20043;-78
2022/03/23 13:16:12;;;;;;;6.38;4.32;;;12.30;33.60;;;;;;5086323;28;20093;-78
2022/03/23 13:18:38;;;;;;;11.52;5.00;;;12.20;33.60;;;;;;5072650;28;20482;-79